createdAt,value
2018-09-13T00:01:20.968Z,67.07
2018-09-13T00:03:49.200Z,67.86
2018-09-13T00:06:17.403Z,67.21
2018-09-13T00:08:45.653Z,67.54
2018-09-13T00:11:13.913Z,66.79
2018-09-13T00:13:42.143Z,66.68
2018-09-13T00:16:10.449Z,66.68
2018-09-13T00:18:38.712Z,67.59
2018-09-13T00:21:07.048Z,66.76
2018-09-13T00:23:35.300Z,66.59
2018-09-13T00:26:03.523Z,66.37
2018-09-13T00:28:31.736Z,66.97
2018-09-13T00:30:59.969Z,66.52
2018-09-13T00:33:28.184Z,66.57
2018-09-13T00:35:56.420Z,66.36
2018-09-13T00:38:24.630Z,66.47
2018-09-13T00:40:52.851Z,66.31
2018-09-13T00:43:21.061Z,66.01
2018-09-13T00:45:49.271Z,65.91
2018-09-13T00:48:17.480Z,66.04
2018-09-13T00:50:45.710Z,66.11
2018-09-13T00:53:13.911Z,65.88
2018-09-13T00:55:42.228Z,66.47
2018-09-13T00:58:10.452Z,66.21
2018-09-13T01:00:38.686Z,66.11
2018-09-13T01:03:06.995Z,66.63
2018-09-13T01:05:35.226Z,66.87
2018-09-13T01:08:03.436Z,66.45
2018-09-13T01:10:31.659Z,65.97
2018-09-13T01:12:59.861Z,66.04
2018-09-13T01:15:28.088Z,66.12
2018-09-13T01:17:56.276Z,66.63
2018-09-13T01:20:24.503Z,66.53
2018-09-13T01:22:52.720Z,65.84
2018-09-13T01:25:20.947Z,65.45
2018-09-13T01:27:49.148Z,65.66
2018-09-13T01:30:17.360Z,66.02
2018-09-13T01:32:45.579Z,66.02
2018-09-13T01:35:13.809Z,65.53
2018-09-13T01:37:42.027Z,65.87
2018-09-13T01:40:10.237Z,65.17
2018-09-13T01:42:38.465Z,66.59
2018-09-13T01:45:06.680Z,66.00
2018-09-13T01:47:34.921Z,65.87
2018-09-13T01:50:03.128Z,65.83
2018-09-13T01:52:31.376Z,66.32
2018-09-13T01:54:59.592Z,65.56
2018-09-13T01:57:27.829Z,65.58
2018-09-13T01:59:56.064Z,65.84
2018-09-13T02:02:24.304Z,64.81
2018-09-13T02:04:52.518Z,64.83
2018-09-13T02:07:20.749Z,65.17
2018-09-13T02:09:48.957Z,64.67
2018-09-13T02:12:17.183Z,64.99
2018-09-13T02:14:45.388Z,64.40
2018-09-13T02:17:13.616Z,64.66
2018-09-13T02:19:41.820Z,64.47
2018-09-13T02:22:10.061Z,64.39
2018-09-13T02:24:38.280Z,63.95
2018-09-13T02:27:06.500Z,64.58
2018-09-13T02:29:34.719Z,63.61
2018-09-13T02:32:02.930Z,64.28
2018-09-13T02:34:31.165Z,63.99
2018-09-13T02:36:59.377Z,64.11
2018-09-13T02:39:27.604Z,64.42
2018-09-13T02:41:56.084Z,64.53
2018-09-13T02:44:24.307Z,64.42
2018-09-13T02:46:52.516Z,64.24
2018-09-13T02:49:20.795Z,65.03
2018-09-13T02:51:48.977Z,64.13
2018-09-13T02:54:17.225Z,64.49
2018-09-13T02:56:45.440Z,64.32
2018-09-13T02:59:13.697Z,63.81
2018-09-13T03:01:41.932Z,64.22
2018-09-13T03:04:10.204Z,65.23
2018-09-13T03:06:38.456Z,64.74
2018-09-13T03:09:09.168Z,64.88
2018-09-13T03:11:37.531Z,64.49
2018-09-13T03:14:05.847Z,64.90
2018-09-13T03:16:34.075Z,64.68
2018-09-13T03:19:02.373Z,65.17
2018-09-13T03:21:30.623Z,65.04
2018-09-13T03:23:58.856Z,64.60
2018-09-13T03:26:27.067Z,65.19
2018-09-13T03:28:55.383Z,65.60
2018-09-13T03:31:23.711Z,66.38
2018-09-13T03:33:51.951Z,66.01
2018-09-13T03:36:20.187Z,65.55
2018-09-13T03:38:48.404Z,66.10
2018-09-13T03:41:16.635Z,65.89
2018-09-13T03:43:44.856Z,66.43
2018-09-13T03:46:13.129Z,66.04
2018-09-13T03:48:41.348Z,66.18
2018-09-13T03:51:09.598Z,66.33
2018-09-13T03:53:37.800Z,66.14
2018-09-13T03:56:06.333Z,66.91
2018-09-13T03:58:34.634Z,66.94
2018-09-13T04:01:02.949Z,67.34
2018-09-13T04:03:31.262Z,67.69
2018-09-13T04:05:59.426Z,67.49
2018-09-13T04:08:28.053Z,67.96
2018-09-13T04:10:56.393Z,67.78
2018-09-13T04:13:24.812Z,67.36
2018-09-13T04:15:53.055Z,67.75
2018-09-13T04:18:21.356Z,67.71
2018-09-13T04:20:50.140Z,67.55
2018-09-13T04:23:18.384Z,67.59
2018-09-13T04:25:46.640Z,67.12
2018-09-13T04:28:14.861Z,66.86
2018-09-13T04:30:43.103Z,66.18
2018-09-13T04:33:11.337Z,66.45
2018-09-13T04:35:39.681Z,66.88
2018-09-13T04:38:07.862Z,66.23
2018-09-13T04:40:36.820Z,66.50
2018-09-13T04:43:05.076Z,66.37
2018-09-13T04:45:33.292Z,66.18
2018-09-13T04:48:01.529Z,66.19
2018-09-13T04:50:29.733Z,65.70
2018-09-13T04:52:57.989Z,65.62
2018-09-13T04:55:26.209Z,66.01
2018-09-13T04:57:54.499Z,66.76
2018-09-13T05:00:22.762Z,67.26
2018-09-13T05:02:50.962Z,66.84
2018-09-13T05:05:19.219Z,67.60
2018-09-13T05:07:47.468Z,67.22
2018-09-13T05:10:15.679Z,67.59
2018-09-13T05:12:43.988Z,68.35
2018-09-13T05:15:12.147Z,68.38
2018-09-13T05:17:40.382Z,68.60
2018-09-13T05:20:08.610Z,68.71
2018-09-13T05:22:36.856Z,68.96
2018-09-13T05:25:05.129Z,68.61
2018-09-13T05:27:33.512Z,68.09
2018-09-13T05:30:01.756Z,67.78
2018-09-13T05:32:30.146Z,67.72
2018-09-13T05:34:58.381Z,67.45
2018-09-13T05:37:26.672Z,67.58
2018-09-13T05:39:54.902Z,67.42
2018-09-13T05:42:23.136Z,67.64
2018-09-13T05:44:51.421Z,67.87
2018-09-13T05:47:20.446Z,67.55
2018-09-13T05:49:48.736Z,68.25
2018-09-13T05:52:16.963Z,68.58
2018-09-13T05:54:45.249Z,68.33
2018-09-13T05:57:13.797Z,67.23
2018-09-13T05:59:42.069Z,67.24
2018-09-13T06:02:10.309Z,67.97
2018-09-13T06:04:38.540Z,67.19
2018-09-13T06:07:06.797Z,67.93
2018-09-13T06:09:35.048Z,67.59
2018-09-13T06:12:03.276Z,67.16
2018-09-13T06:14:31.520Z,66.86
2018-09-13T06:17:00.498Z,66.36
2018-09-13T06:19:28.749Z,66.22
2018-09-13T06:21:56.977Z,66.48
2018-09-13T06:24:25.263Z,66.77
2018-09-13T06:26:53.468Z,66.85
2018-09-13T06:29:21.757Z,66.46
2018-09-13T06:31:49.933Z,66.30
2018-09-13T06:34:18.204Z,66.65
2018-09-13T06:36:46.416Z,66.07
2018-09-13T06:39:14.681Z,66.96
2018-09-13T06:41:42.889Z,65.86
2018-09-13T06:44:11.364Z,65.37
2018-09-13T06:46:39.919Z,65.66
2018-09-13T06:49:08.336Z,65.78
2018-09-13T06:51:36.559Z,65.20
2018-09-13T06:54:04.835Z,65.35
2018-09-13T06:56:33.047Z,64.93
2018-09-13T06:59:01.349Z,64.81
2018-09-13T07:01:29.608Z,64.64
2018-09-13T07:03:57.816Z,64.27
2018-09-13T07:06:26.071Z,64.38
2018-09-13T07:08:54.356Z,64.37
2018-09-13T07:11:22.594Z,64.16
2018-09-13T07:13:51.823Z,64.48
2018-09-13T07:16:20.048Z,64.33
2018-09-13T07:18:48.385Z,64.39
2018-09-13T07:21:16.664Z,64.91
2018-09-13T07:23:44.948Z,63.79
2018-09-13T07:26:13.183Z,64.56
2018-09-13T07:28:41.408Z,64.40
2018-09-13T07:31:09.658Z,64.37
2018-09-13T07:33:38.055Z,64.35
2018-09-13T07:36:06.299Z,63.96
2018-09-13T07:38:34.496Z,64.55
2018-09-13T07:41:02.737Z,64.09
2018-09-13T07:43:30.948Z,64.08
2018-09-13T07:45:59.180Z,64.67
2018-09-13T07:48:27.396Z,64.45
2018-09-13T07:50:55.615Z,64.59
2018-09-13T07:53:23.880Z,65.01
2018-09-13T07:55:52.139Z,64.99
2018-09-13T07:58:20.376Z,64.44
2018-09-13T08:00:48.584Z,65.08
2018-09-13T08:03:16.820Z,65.50
2018-09-13T08:05:45.014Z,64.74
2018-09-13T08:08:13.235Z,64.22
2018-09-13T08:10:41.443Z,64.87
2018-09-13T08:13:09.697Z,64.81
2018-09-13T08:15:37.936Z,64.57
2018-09-13T08:18:06.177Z,64.65
2018-09-13T08:20:34.432Z,64.51
2018-09-13T08:23:02.681Z,64.99
2018-09-13T08:25:30.892Z,64.55
2018-09-13T08:27:59.832Z,64.30
2018-09-13T08:30:28.085Z,64.23
2018-09-13T08:32:56.319Z,64.96
2018-09-13T08:35:24.838Z,64.18
2018-09-13T08:37:53.132Z,64.29
2018-09-13T08:40:21.526Z,63.54
2018-09-13T08:42:49.653Z,63.54
2018-09-13T08:45:17.892Z,63.57
2018-09-13T08:47:46.145Z,63.73
2018-09-13T08:50:14.392Z,63.55
2018-09-13T08:52:42.629Z,63.96
2018-09-13T08:55:10.954Z,64.49
2018-09-13T08:57:39.969Z,63.68
2018-09-13T09:00:10.180Z,62.99
2018-09-13T09:02:38.638Z,63.75
2018-09-13T09:05:07.136Z,64.31
2018-09-13T09:07:35.903Z,64.22
2018-09-13T09:10:05.095Z,64.20
2018-09-13T09:12:33.384Z,65.01
2018-09-13T09:15:01.624Z,64.14
2018-09-13T09:17:29.848Z,64.41
2018-09-13T09:19:58.525Z,64.20
2018-09-13T09:22:26.788Z,63.92
2018-09-13T09:24:55.696Z,64.45
2018-09-13T09:27:24.004Z,64.78
2018-09-13T09:29:52.361Z,63.83
2018-09-13T09:32:20.550Z,64.10
2018-09-13T09:34:48.830Z,64.24
2018-09-13T09:37:17.028Z,63.74
2018-09-13T09:39:45.353Z,63.46
2018-09-13T09:42:13.508Z,63.71
2018-09-13T09:44:41.749Z,62.93
2018-09-13T09:47:09.988Z,63.01
2018-09-13T09:49:38.231Z,62.48
2018-09-13T09:52:06.529Z,62.76
2018-09-13T09:54:34.740Z,63.18
2018-09-13T09:57:02.992Z,61.84
2018-09-13T09:59:31.216Z,61.59
2018-09-13T10:02:04.704Z,62.77
2018-09-13T10:04:32.991Z,60.62
2018-09-13T10:07:01.332Z,61.45
2018-09-13T10:09:29.553Z,60.68
2018-09-13T10:11:57.843Z,60.74
2018-09-13T10:14:26.029Z,61.64
2018-09-13T10:16:59.520Z,61.33
2018-09-13T10:19:33.160Z,60.82
2018-09-13T10:23:06.546Z,61.17
2018-09-13T10:25:40.061Z,60.88
2018-09-13T10:28:13.728Z,61.22
2018-09-13T10:30:47.410Z,60.92
2018-09-13T10:33:20.904Z,60.60
2018-09-13T10:35:54.671Z,61.07
2018-09-13T10:38:28.264Z,60.95
2018-09-13T10:41:01.772Z,61.00
2018-09-13T10:43:35.250Z,59.94
2018-09-13T10:46:08.835Z,59.96
2018-09-13T10:48:37.030Z,59.65
2018-09-13T10:51:11.352Z,60.23
2018-09-13T10:53:44.016Z,59.57
2018-09-13T10:56:12.344Z,59.13
2018-09-13T10:58:40.899Z,59.01
2018-09-13T11:01:09.128Z,58.79
2018-09-13T11:03:37.393Z,58.64
2018-09-13T11:06:05.634Z,59.71
2018-09-13T11:08:33.868Z,59.67
2018-09-13T11:11:02.200Z,58.64
2018-09-13T11:13:38.347Z,59.05
2018-09-13T11:16:06.648Z,57.73
2018-09-13T11:18:35.017Z,58.38
2018-09-13T11:21:03.228Z,58.94
2018-09-13T11:23:31.472Z,59.11
2018-09-13T11:25:59.683Z,59.40
2018-09-13T11:28:27.936Z,59.14
2018-09-13T11:31:02.708Z,58.60
2018-09-13T11:33:31.404Z,58.99
2018-09-13T11:35:59.695Z,60.33
2018-09-13T11:38:27.956Z,59.82
2018-09-13T11:40:56.694Z,59.88
2018-09-13T11:43:24.759Z,60.13
2018-09-13T11:45:52.985Z,59.54
2018-09-13T11:48:21.230Z,58.99
2018-09-13T11:50:49.460Z,59.52
2018-09-13T11:53:17.687Z,58.66
2018-09-13T11:55:46.384Z,59.01
2018-09-13T11:58:15.792Z,58.72
2018-09-13T12:00:44.082Z,59.13
2018-09-13T12:03:13.335Z,58.55
2018-09-13T12:05:41.583Z,58.50
2018-09-13T12:08:10.732Z,58.04
2018-09-13T12:10:38.987Z,57.83
2018-09-13T12:13:07.235Z,56.65
2018-09-13T12:15:35.488Z,57.48
2018-09-13T12:18:03.845Z,56.47
2018-09-13T12:20:31.980Z,56.48
2018-09-13T12:23:00.200Z,55.26
2018-09-13T12:25:28.447Z,55.12
2018-09-13T12:27:56.709Z,55.78
2018-09-13T12:30:24.940Z,56.19
2018-09-13T12:32:53.188Z,55.07
2018-09-13T12:35:21.437Z,56.14
2018-09-13T12:37:49.683Z,56.05
2018-09-13T12:40:17.943Z,57.24
2018-09-13T12:42:46.188Z,57.69
2018-09-13T12:45:14.704Z,57.63
2018-09-13T12:47:42.925Z,57.83
2018-09-13T12:50:11.157Z,57.21
2018-09-13T12:52:39.422Z,56.52
2018-09-13T12:55:07.676Z,57.32
2018-09-13T12:57:36.011Z,57.52
2018-09-13T13:00:04.532Z,57.24
2018-09-13T13:02:32.768Z,57.08
2018-09-13T13:05:01.039Z,56.15
2018-09-13T13:07:29.288Z,56.60
2018-09-13T13:09:57.611Z,55.88
2018-09-13T13:12:25.896Z,54.89
2018-09-13T13:14:54.177Z,55.02
2018-09-13T13:17:22.442Z,54.39
2018-09-13T13:19:50.692Z,54.53
2018-09-13T13:22:18.980Z,55.24
2018-09-13T13:24:47.280Z,55.03
2018-09-13T13:27:15.603Z,54.91
2018-09-13T13:29:43.793Z,55.51
2018-09-13T13:32:12.032Z,55.04
2018-09-13T13:34:40.247Z,55.01
2018-09-13T13:37:08.488Z,55.59
2018-09-13T13:39:36.712Z,55.49
2018-09-13T13:42:04.956Z,55.08
2018-09-13T13:44:33.277Z,54.69
2018-09-13T13:47:01.509Z,55.18
2018-09-13T13:49:29.887Z,55.94
2018-09-13T13:51:58.048Z,55.50
2018-09-13T13:54:26.268Z,55.91
2018-09-13T13:56:54.498Z,55.53
2018-09-13T13:59:22.760Z,54.65
2018-09-13T14:01:51.538Z,55.02
2018-09-13T14:04:20.995Z,55.54
2018-09-13T14:06:49.244Z,54.56
2018-09-13T14:09:17.472Z,55.02
2018-09-13T14:11:45.933Z,54.80
2018-09-13T14:14:14.215Z,54.28
2018-09-13T14:16:43.500Z,54.33
2018-09-13T14:19:11.727Z,54.05
2018-09-13T14:21:39.964Z,55.16
2018-09-13T14:24:08.233Z,54.81
2018-09-13T14:26:36.501Z,54.85
2018-09-13T14:29:04.736Z,54.12
2018-09-13T14:31:33.147Z,53.89
2018-09-13T14:34:01.460Z,53.33
2018-09-13T14:36:29.684Z,53.03
2018-09-13T14:38:57.932Z,53.43
2018-09-13T14:41:26.165Z,52.76
2018-09-13T14:43:54.428Z,53.73
2018-09-13T14:46:22.671Z,53.71
2018-09-13T14:48:50.884Z,53.16
2018-09-13T14:51:19.132Z,52.94
2018-09-13T14:53:47.360Z,52.99
2018-09-13T14:56:15.613Z,53.09
2018-09-13T14:58:45.154Z,52.33
2018-09-13T15:01:13.519Z,52.84
2018-09-13T15:03:41.768Z,52.37
2018-09-13T15:06:10.140Z,52.48
2018-09-13T15:08:38.386Z,52.57
2018-09-13T15:11:06.705Z,52.51
2018-09-13T15:13:35.084Z,52.65
2018-09-13T15:16:03.371Z,53.82
2018-09-13T15:18:31.635Z,53.18
2018-09-13T15:20:59.913Z,52.77
2018-09-13T15:23:28.191Z,52.34
2018-09-13T15:25:56.530Z,52.29
2018-09-13T15:28:24.916Z,52.55
2018-09-13T15:30:53.300Z,52.10
2018-09-13T15:33:21.517Z,52.40
2018-09-13T15:35:49.881Z,52.83
2018-09-13T15:38:18.132Z,52.04
2018-09-13T15:40:46.411Z,52.14
2018-09-13T15:43:14.694Z,51.56
2018-09-13T15:45:42.926Z,51.60
2018-09-13T15:48:11.161Z,51.83
2018-09-13T15:50:39.485Z,52.30
2018-09-13T15:53:07.751Z,52.68
2018-09-13T15:55:36.000Z,52.97
2018-09-13T15:58:04.248Z,52.39
2018-09-13T16:00:32.629Z,52.50
2018-09-13T16:03:00.936Z,53.54
2018-09-13T16:05:29.427Z,54.14
2018-09-13T16:07:57.667Z,53.45
2018-09-13T16:10:25.924Z,52.44
2018-09-13T16:12:54.377Z,52.66
2018-09-13T16:15:22.503Z,53.20
2018-09-13T16:17:50.768Z,52.58
2018-09-13T16:20:19.123Z,52.94
2018-09-13T16:22:47.420Z,52.13
2018-09-13T16:25:16.235Z,51.51
2018-09-13T16:27:44.476Z,51.80
2018-09-13T16:30:12.740Z,51.71
2018-09-13T16:32:41.013Z,52.09
2018-09-13T16:35:09.263Z,52.34
2018-09-13T16:37:43.452Z,51.82
2018-09-13T16:40:16.684Z,51.78
2018-09-13T16:42:53.605Z,52.17
2018-09-13T16:45:26.605Z,52.53
2018-09-13T16:48:00.431Z,53.43
2018-09-13T16:50:28.733Z,53.17
2018-09-13T16:52:57.028Z,52.21
2018-09-13T16:55:25.289Z,53.13
2018-09-13T16:57:53.572Z,52.53
2018-09-13T17:00:23.276Z,52.96
2018-09-13T17:02:51.584Z,52.86
2018-09-13T17:05:19.824Z,52.82
2018-09-13T17:07:48.123Z,53.17
2018-09-13T17:10:16.587Z,52.71
2018-09-13T17:12:45.052Z,52.97
2018-09-13T17:15:13.328Z,52.90
2018-09-13T17:17:41.656Z,53.10
2018-09-13T17:20:09.908Z,53.91
2018-09-13T17:22:38.132Z,53.88
2018-09-13T17:25:06.473Z,53.92
2018-09-13T17:27:34.728Z,54.37
2018-09-13T17:30:03.040Z,53.98
2018-09-13T17:32:31.344Z,54.32
2018-09-13T17:35:00.356Z,54.97
2018-09-13T17:37:28.585Z,55.12
2018-09-13T17:39:59.021Z,54.97
2018-09-13T17:42:27.240Z,54.83
2018-09-13T17:44:55.517Z,55.62
2018-09-13T17:47:23.792Z,55.31
2018-09-13T17:49:52.021Z,55.42
2018-09-13T17:52:20.251Z,55.56
2018-09-13T17:54:48.505Z,55.88
2018-09-13T17:57:16.724Z,56.01
2018-09-13T17:59:45.013Z,56.26
2018-09-13T18:02:13.260Z,56.34
2018-09-13T18:04:41.509Z,56.50
2018-09-13T18:07:10.279Z,57.09
2018-09-13T18:09:38.656Z,57.48
2018-09-13T18:12:06.972Z,57.38
2018-09-13T18:14:35.272Z,57.60
2018-09-13T18:17:03.514Z,57.68
2018-09-13T18:19:31.766Z,58.17
2018-09-13T18:22:00.012Z,57.89
2018-09-13T18:24:28.253Z,57.76
2018-09-13T18:26:56.484Z,58.35
2018-09-13T18:29:24.696Z,57.87
2018-09-13T18:31:52.945Z,58.01
2018-09-13T18:34:21.262Z,58.46
2018-09-13T18:36:49.675Z,58.07
2018-09-13T18:39:17.980Z,57.45
2018-09-13T18:41:46.316Z,57.30
2018-09-13T18:44:14.544Z,57.55
2018-09-13T18:46:42.800Z,57.19
2018-09-13T18:55:15.927Z,57.37
2018-09-13T18:57:44.204Z,57.96
2018-09-13T19:00:12.446Z,58.07
2018-09-13T19:02:40.749Z,58.04
2018-09-13T19:05:09.015Z,57.42
2018-09-13T19:07:37.314Z,58.38
2018-09-13T19:10:05.983Z,58.64
2018-09-13T19:12:34.265Z,58.66
2018-09-13T19:15:02.515Z,58.95
2018-09-13T19:17:30.760Z,58.45
2018-09-13T19:19:58.996Z,58.90
2018-09-13T19:22:27.268Z,58.50
2018-09-13T19:24:55.522Z,58.84
2018-09-13T19:27:23.765Z,58.98
2018-09-13T19:29:51.977Z,58.99
2018-09-13T19:32:20.245Z,58.71
2018-09-13T19:34:48.463Z,58.23
2018-09-13T19:37:17.238Z,59.04
2018-09-13T19:39:45.473Z,58.49
2018-09-13T19:42:15.486Z,58.63
2018-09-13T19:44:43.740Z,58.29
2018-09-13T19:47:12.073Z,58.19
2018-09-13T19:49:40.329Z,57.69
2018-09-13T19:52:08.621Z,57.65
2018-09-13T19:54:37.185Z,57.78
2018-09-13T19:57:05.658Z,57.84
2018-09-13T19:59:34.017Z,58.20
2018-09-13T20:02:02.304Z,58.42
2018-09-13T20:04:30.680Z,58.31
2018-09-13T20:06:58.952Z,58.24
2018-09-13T20:09:27.192Z,58.26
2018-09-13T20:11:55.464Z,58.68
2018-09-13T20:14:23.770Z,58.69
2018-09-13T20:16:52.732Z,58.54
2018-09-13T20:19:21.053Z,58.80
2018-09-13T20:21:49.332Z,58.74
2018-09-13T20:24:17.596Z,58.75
2018-09-13T20:26:46.093Z,58.99
2018-09-13T20:29:14.488Z,58.21
2018-09-13T20:31:42.708Z,58.62
2018-09-13T20:34:10.976Z,58.80
2018-09-13T20:36:39.321Z,59.27
2018-09-13T20:39:09.634Z,58.96
2018-09-13T20:41:37.833Z,59.22
2018-09-13T20:44:06.340Z,59.09
2018-09-13T20:46:34.562Z,58.74
2018-09-13T20:49:02.821Z,58.75
2018-09-13T20:51:31.050Z,58.51
2018-09-13T20:53:59.277Z,58.74
2018-09-13T20:56:27.600Z,58.41
2018-09-13T20:58:55.852Z,58.18
2018-09-13T21:01:24.122Z,58.41
2018-09-13T21:03:52.348Z,58.78
2018-09-13T21:06:20.661Z,58.39
2018-09-13T21:08:48.909Z,58.75
2018-09-13T21:11:17.244Z,58.86
2018-09-13T21:13:45.485Z,58.99
2018-09-13T21:16:14.693Z,58.19
2018-09-13T21:18:42.932Z,58.60
2018-09-13T21:21:11.180Z,59.03
2018-09-13T21:23:40.305Z,59.22
2018-09-13T21:26:08.658Z,59.81
2018-09-13T21:28:36.954Z,59.72
2018-09-13T21:31:05.205Z,60.16
2018-09-13T21:33:33.705Z,60.12
2018-09-13T21:36:02.265Z,60.01
2018-09-13T21:38:30.484Z,59.68
2018-09-13T21:40:58.740Z,59.41
2018-09-13T21:43:26.969Z,59.77
2018-09-13T21:45:55.221Z,60.13
2018-09-13T21:48:23.441Z,59.70
2018-09-13T21:50:51.718Z,59.87
2018-09-13T21:53:19.941Z,59.49
2018-09-13T21:55:48.960Z,59.81
2018-09-13T21:58:17.180Z,59.89
2018-09-13T22:00:45.420Z,59.63
2018-09-13T22:03:13.644Z,59.75
2018-09-13T22:05:42.232Z,59.84
2018-09-13T22:08:10.780Z,59.32
2018-09-13T22:10:40.185Z,59.85
2018-09-13T22:13:08.413Z,59.24
2018-09-13T22:15:36.641Z,59.33
2018-09-13T22:18:04.880Z,59.85
2018-09-13T22:20:33.124Z,60.02
2018-09-13T22:23:01.337Z,59.98
2018-09-13T22:25:30.604Z,59.04
2018-09-13T22:27:58.812Z,59.68
2018-09-13T22:30:27.061Z,59.37
2018-09-13T22:32:55.265Z,59.82
2018-09-13T22:35:23.517Z,59.94
2018-09-13T22:37:51.769Z,59.69
2018-09-13T22:40:19.993Z,59.95
2018-09-13T22:42:48.347Z,60.04
2018-09-13T22:45:16.556Z,59.40
2018-09-13T22:47:44.779Z,58.95
2018-09-13T22:50:13.012Z,58.71
2018-09-13T22:52:41.253Z,59.39
2018-09-13T22:55:09.509Z,59.20
2018-09-13T22:57:37.733Z,59.82
2018-09-13T23:00:06.325Z,59.74
2018-09-13T23:02:39.955Z,59.57
2018-09-13T23:05:08.201Z,59.56
2018-09-13T23:07:36.461Z,58.99
2018-09-13T23:10:04.918Z,59.67
2018-09-13T23:12:33.192Z,58.75
2018-09-13T23:15:01.438Z,58.96
2018-09-13T23:17:29.736Z,58.87
2018-09-13T23:19:57.940Z,58.70
2018-09-13T23:22:26.193Z,58.95
2018-09-13T23:24:54.413Z,58.46
2018-09-13T23:27:22.684Z,58.87
2018-09-13T23:29:50.913Z,58.91
2018-09-13T23:32:19.168Z,58.69
2018-09-13T23:34:47.387Z,59.18
2018-09-13T23:37:15.624Z,59.22
2018-09-13T23:39:44.189Z,59.51
2018-09-13T23:42:12.108Z,59.24
2018-09-13T23:44:40.322Z,59.25
2018-09-13T23:47:08.573Z,59.65
2018-09-13T23:49:36.852Z,58.86
2018-09-13T23:52:05.105Z,58.81
2018-09-13T23:54:33.320Z,59.07
2018-09-13T23:57:01.583Z,59.09
2018-09-13T23:59:29.836Z,58.44
